Main page
METAR-TAF:

METAR-TAF

Airports :

Donegal Airport

Donegal, Ireland

latitude: 55-02-39N, longitude: 8-20-28W, elevation: 9 m

Current weather observation

The report was made 4 hours and 4 minutes ago, at 18:30 UTC
Wind 18 kt from the West/Northwest
Temperature 13°C
Humidity 77%
Pressure 1008 hPa
Visibility 10 km or more
Few clouds at a height of 1900 ft

METAR: EIDL 051830Z 30018KT 9999 FEW019 13/09 Q1008

Time: 23:34 (22:34 UTC)

Forecast

The report was made 5 hours and 34 minutes ago, at 17:00 UTC
Forecast valid from 05 at 18 UTC to 06 at 03 UTC
Wind 20 kt from the West/Northwest with gusts up to 32 kt
Visibility 10 km or more
Scattered clouds at a height of 1800 ft
Scattered clouds at a height of 3000 ft

TAF: EIDL 051700Z 0518/0603 30020G32KT 9999 SCT018 SCT030

Weather observations and forecasts of more than 4000 airports (METAR and TAF reports).

The available stations are represented by yellow and red dots on the map.

Hover mouse over dot to see the name of the station.

Then click to see weather observations and forecasts.

To change the map : click on the green buttons with a black cross to zoom in, on the green button with a dash to zoom out, or on the green arrows for adjacent maps.


METAR-TAF: